Time;durP1;ratioP1;P1;durP2;ratioP2;P2;SDS_P1;SDS_P2;PMS_P1;PMS_P2;Temp;Humidity;BMP_temperature;BMP_pressure;BME280_temperature;BME280_humidity;BME280_pressure;Samples;Min_cycle;Max_cycle;Signal;HPM_P1;HPM_P2
2022/11/05 00:10:53;;;;;;;16.52;10.35;;;;;;;9.43;79.58;100523.64;1706398;83;21054;-86
2022/11/05 00:19:05;;;;;;;17.10;10.03;;;;;;;9.40;79.91;100527.49;1709007;82;21368;-85
2022/11/05 00:27:09;;;;;;;18.35;9.85;;;;;;;9.39;80.15;100523.11;1697088;83;23003;-85
2022/11/05 00:29:36;;;;;;;13.95;9.80;;;;;;;9.36;80.13;100520.38;1709106;83;21050;-85
2022/11/05 00:32:03;;;;;;;15.72;10.58;;;;;;;9.34;80.33;100519.02;1710813;83;21078;-85
2022/11/05 00:34:29;;;;;;;18.12;10.03;;;;;;;9.37;80.43;100518.67;1709361;83;21567;-85
2022/11/05 00:36:57;;;;;;;13.05;9.43;;;;;;;9.39;80.47;100518.28;1708988;83;21054;-85
2022/11/05 00:39:24;;;;;;;16.97;10.30;;;;;;;9.37;80.49;100524.80;1711414;83;21771;-86
2022/11/05 00:50:09;;;;;;;14.30;9.38;;;;;;;9.40;80.76;100520.92;1712389;83;21144;-85
2022/11/05 00:52:55;;;;;;;17.12;9.83;;;;;;;9.41;80.82;100520.09;1709368;82;21801;-84
2022/11/05 00:55:27;;;;;;;17.55;10.53;;;;;;;9.42;80.84;100523.59;1696545;83;21011;-85
2022/11/05 00:57:54;;;;;;;18.17;10.05;;;;;;;9.37;80.79;100516.05;1708773;83;21143;-85
2022/11/05 01:00:22;;;;;;;12.37;10.03;;;;;;;9.34;80.85;100515.09;1708880;83;21070;-85
2022/11/05 01:02:49;;;;;;;17.30;10.55;;;;;;;9.35;80.99;100513.38;1710548;83;21042;-85
2022/11/05 01:05:16;;;;;;;13.05;10.10;;;;;;;9.38;81.09;100510.80;1708850;83;21750;-85
2022/11/05 01:07:42;;;;;;;14.33;10.18;;;;;;;9.39;81.04;100511.72;1708790;83;21051;-85
2022/11/05 01:10:09;;;;;;;17.25;10.98;;;;;;;9.35;81.05;100510.74;1733908;82;21150;-85
2022/11/05 01:12:36;;;;;;;17.67;10.85;;;;;;;9.29;80.96;100510.16;1744780;82;21118;-85
2022/11/05 01:15:03;;;;;;;18.23;11.12;;;;;;;9.28;81.16;100511.42;1745506;82;21122;-86
2022/11/05 01:17:30;;;;;;;18.57;10.93;;;;;;;9.28;81.21;100504.42;1703206;82;21698;-87
2022/11/05 01:19:57;;;;;;;19.73;11.78;;;;;;;9.24;81.23;100509.58;1710859;83;21046;-86
2022/11/05 01:22:24;;;;;;;15.58;9.93;;;;;;;9.24;81.32;100509.58;1711577;83;21561;-86
2022/11/05 01:24:50;;;;;;;14.07;10.05;;;;;;;9.24;81.39;100502.58;1708484;83;21085;-86
2022/11/05 01:27:17;;;;;;;16.52;9.78;;;;;;;9.21;81.38;100504.23;1710567;83;21113;-86
2022/11/05 01:29:44;;;;;;;14.90;11.20;;;;;;;9.20;81.55;100504.66;1715315;82;21701;-86
2022/11/05 01:32:11;;;;;;;15.20;10.90;;;;;;;9.24;81.68;100489.88;1709177;82;21051;-85
2022/11/05 01:34:38;;;;;;;15.43;10.38;;;;;;;9.24;81.65;100489.44;1693828;84;21090;-85
2022/11/05 01:37:05;;;;;;;18.77;10.23;;;;;;;9.22;81.64;100491.14;1694135;83;21066;-85
2022/11/05 01:39:32;;;;;;;16.62;11.40;;;;;;;9.22;81.73;100494.20;1693606;83;21061;-85
2022/11/05 01:41:59;;;;;;;15.95;10.80;;;;;;;9.23;81.78;100494.65;1693876;84;21763;-85
2022/11/05 01:44:58;;;;;;;15.43;11.00;;;;;;;9.21;81.77;100497.66;1727982;82;21039;-86
2022/11/05 01:47:31;;;;;;;14.50;10.18;;;;;;;9.22;81.85;100504.70;1730091;82;21037;-84
2022/11/05 01:50:01;;;;;;;16.27;10.68;;;;;;;9.23;81.95;100515.66;1730349;82;21633;-84
2022/11/05 01:52:30;;;;;;;14.30;10.98;;;;;;;9.23;82.03;100512.59;1730377;82;21546;-84
2022/11/05 01:54:57;;;;;;;13.95;10.78;;;;;;;9.25;82.07;100506.99;1731155;81;21813;-85
2022/11/05 01:57:23;;;;;;;12.85;10.60;;;;;;;9.27;82.09;100509.63;1733190;82;21049;-84
2022/11/05 01:59:53;;;;;;;18.73;10.63;;;;;;;9.28;82.08;100508.80;1730840;82;21041;-84
2022/11/05 02:02:20;;;;;;;14.68;10.85;;;;;;;9.28;82.11;100505.74;1730241;82;21050;-84
2022/11/05 02:04:59;;;;;;;13.85;10.10;;;;;;;9.27;82.10;100500.44;1730420;82;21124;-84
2022/11/05 02:07:26;;;;;;;13.75;10.63;;;;;;;9.25;81.99;100500.42;1730259;82;21758;-85
2022/11/05 02:10:05;;;;;;;12.28;9.75;;;;;;;9.20;82.02;100499.41;1730345;82;21073;-84
2022/11/05 02:12:32;;;;;;;14.55;10.23;;;;;;;9.21;82.19;100502.91;1730581;82;21140;-85
2022/11/05 02:14:59;;;;;;;11.85;10.30;;;;;;;9.20;82.19;100498.53;1730475;82;21664;-84
2022/11/05 02:17:46;;;;;;;14.03;9.93;;;;;;;9.20;82.27;100492.84;1730486;82;21065;-85
2022/11/05 02:20:37;;;;;;;12.25;10.55;;;;;;;9.22;82.41;100490.27;1730588;81;21817;-86
2022/11/05 02:23:55;;;;;;;14.33;10.40;;;;;;;9.25;82.38;100485.07;1730884;82;21085;-86
2022/11/05 02:26:53;;;;;;;14.73;10.75;;;;;;;9.24;82.37;100478.94;1710312;83;21062;-85
2022/11/05 02:30:04;;;;;;;13.95;9.80;;;;;;;9.23;82.39;100477.58;1732757;82;21061;-85
2022/11/05 02:33:03;;;;;;;12.78;10.95;;;;;;;9.21;82.40;100478.84;1713114;82;21093;-85
2022/11/05 02:35:44;;;;;;;12.98;9.80;;;;;;;9.21;82.51;100477.97;1713133;82;23146;-85
2022/11/05 02:38:35;;;;;;;13.45;10.38;;;;;;;9.24;82.60;100482.00;1734568;82;21037;-85
2022/11/05 02:41:19;;;;;;;14.65;10.93;;;;;;;9.23;82.54;100473.64;1727817;83;21120;-84
2022/11/05 02:43:57;;;;;;;11.70;9.90;;;;;;;9.24;82.53;100482.00;1721542;81;21181;-84
2022/11/05 02:46:35;;;;;;;15.75;10.40;;;;;;;9.20;82.52;100484.97;1715936;83;21076;-84
2022/11/05 02:49:36;;;;;;;14.53;10.00;;;;;;;9.19;82.56;100475.30;1715857;83;21784;-85
2022/11/05 02:52:10;;;;;;;14.40;10.48;;;;;;;9.20;82.65;100480.15;1715637;83;21076;-85
2022/11/05 02:55:00;;;;;;;13.22;10.43;;;;;;;9.21;82.65;100483.22;1715266;83;21115;-85
2022/11/05 02:57:28;;;;;;;11.75;9.83;;;;;;;9.18;82.69;100479.19;1715835;81;21068;-85
2022/11/05 03:00:05;;;;;;;11.15;9.90;;;;;;;9.18;82.73;100486.67;1715601;82;21076;-85
2022/11/05 03:02:32;;;;;;;15.98;10.53;;;;;;;9.20;82.79;100488.03;1715632;83;21766;-84
2022/11/05 03:04:59;;;;;;;13.38;10.93;;;;;;;9.20;82.81;100488.91;1715487;83;21100;-84
2022/11/05 03:07:43;;;;;;;12.73;11.20;;;;;;;9.19;82.77;100494.11;1715949;82;21020;-84
2022/11/05 03:10:21;;;;;;;20.17;18.00;;;;;;;9.20;82.85;100499.41;1715378;82;21076;-85
2022/11/05 03:13:11;;;;;;;21.23;18.40;;;;;;;9.22;82.92;100495.08;1710140;83;21064;-85
2022/11/05 03:15:55;;;;;;;19.40;15.28;;;;;;;9.20;82.82;100495.47;1715258;81;21786;-85
2022/11/05 03:18:42;;;;;;;16.62;13.28;;;;;;;9.17;82.78;100496.69;1715182;83;21560;-86
2022/11/05 03:21:19;;;;;;;14.47;12.63;;;;;;;9.14;82.86;100500.53;1712772;82;21332;-84
2022/11/05 03:23:59;;;;;;;15.35;11.65;;;;;;;9.13;82.95;100498.34;1714846;82;22064;-83
2022/11/05 03:26:47;;;;;;;14.20;11.22;;;;;;;9.15;82.99;100495.77;1714522;82;22053;-84
2022/11/05 03:29:25;;;;;;;17.15;11.40;;;;;;;9.13;82.98;100500.97;1714502;82;22844;-83
2022/11/05 03:31:53;;;;;;;12.98;10.38;;;;;;;9.16;83.03;100502.81;1715362;82;21039;-84
2022/11/05 03:34:23;;;;;;;13.15;11.05;;;;;;;9.14;83.00;100504.08;1715311;83;21092;-85
2022/11/05 03:36:52;;;;;;;13.15;10.93;;;;;;;9.13;82.98;100510.59;1715328;83;21617;-86
2022/11/05 03:39:27;;;;;;;13.08;11.55;;;;;;;9.09;83.01;100512.24;1714674;83;21081;-86
2022/11/05 03:41:54;;;;;;;13.30;10.72;;;;;;;9.11;83.09;100518.42;1713261;83;21859;-86
2022/11/05 03:44:28;;;;;;;12.30;10.88;;;;;;;9.10;83.08;100510.50;1712249;83;21069;-86
2022/11/05 03:47:00;;;;;;;12.73;10.85;;;;;;;9.12;83.20;100511.42;1712385;83;21089;-86
2022/11/05 03:49:32;;;;;;;12.60;11.30;;;;;;;9.13;83.20;100508.84;1712230;83;21093;-86
2022/11/05 03:52:09;;;;;;;13.40;10.90;;;;;;;9.15;83.21;100506.27;1711340;83;21090;-86
2022/11/05 03:54:36;;;;;;;13.08;10.50;;;;;;;9.13;83.17;100500.97;1711466;83;21790;-86
2022/11/05 03:57:10;;;;;;;15.13;11.33;;;;;;;9.13;83.12;100498.77;1694648;83;21089;-86
2022/11/05 03:59:44;;;;;;;11.80;10.25;;;;;;;9.11;83.21;100500.48;1712690;83;21050;-85
2022/11/05 04:02:12;;;;;;;13.75;11.05;;;;;;;9.12;83.18;100497.89;1713417;83;21598;-86
2022/11/05 04:04:39;;;;;;;14.78;11.45;;;;;;;9.11;83.23;100501.78;1713334;83;21082;-86
2022/11/05 04:15:20;;;;;;;14.33;11.03;;;;;;;9.11;83.24;100507.04;1628679;87;21098;-86
2022/11/05 04:17:46;;;;;;;13.78;10.80;;;;;;;9.10;83.30;100514.04;1675859;84;21056;-87
2022/11/05 04:25:45;;;;;;;14.63;11.70;;;;;;;9.09;83.39;100515.30;1715245;82;21074;-84
2022/11/05 04:28:12;;;;;;;14.75;12.00;;;;;;;9.07;83.40;100510.44;1715326;82;21023;-84
2022/11/05 04:30:39;;;;;;;12.73;10.68;;;;;;;9.10;83.47;100512.72;1718030;82;21078;-84
2022/11/05 04:33:14;;;;;;;15.83;11.68;;;;;;;9.08;83.37;100512.20;1718753;83;21796;-85
2022/11/05 04:35:45;;;;;;;13.08;10.88;;;;;;;9.05;83.42;100509.51;1718787;83;21261;-85
2022/11/05 04:38:17;;;;;;;14.53;11.88;;;;;;;9.05;83.42;100519.58;1718876;82;21053;-85
2022/11/05 04:40:45;;;;;;;14.20;11.97;;;;;;;9.05;83.48;100510.39;1718818;82;21188;-85
2022/11/05 04:43:13;;;;;;;14.80;11.78;;;;;;;9.05;83.47;100509.08;1708424;82;21207;-85
2022/11/05 04:45:40;;;;;;;14.73;11.28;;;;;;;9.05;83.54;100503.83;1706452;84;21828;-85
2022/11/05 04:48:07;;;;;;;16.40;12.23;;;;;;;9.08;83.60;100506.52;1706835;82;21055;-86
2022/11/05 04:50:38;;;;;;;13.13;11.08;;;;;;;9.12;83.62;100510.11;1706549;84;21043;-86
2022/11/05 04:53:05;;;;;;;13.10;10.95;;;;;;;9.14;83.63;100511.04;1706530;82;21437;-85
2022/11/05 04:55:32;;;;;;;15.58;11.93;;;;;;;9.13;83.54;100528.54;1706378;83;21121;-85
2022/11/05 04:58:08;;;;;;;13.80;11.97;;;;;;;9.15;83.58;100525.96;1706333;82;21737;-85
2022/11/05 05:00:35;;;;;;;14.50;12.25;;;;;;;9.14;83.54;100526.39;1706059;83;21580;-86
2022/11/05 05:03:02;;;;;;;13.68;11.83;;;;;;;9.12;83.48;100518.91;1702487;84;21611;-86
2022/11/05 05:05:29;;;;;;;14.60;12.23;;;;;;;9.15;83.58;100529.47;1706496;84;21522;-86
2022/11/05 05:08:01;;;;;;;15.23;13.15;;;;;;;9.17;83.56;100541.77;1706175;84;21072;-86
2022/11/05 05:10:28;;;;;;;16.07;12.03;;;;;;;9.15;83.55;100543.91;1706431;82;21832;-85
2022/11/05 05:12:55;;;;;;;15.75;12.25;;;;;;;9.15;83.51;100544.34;1706411;82;21049;-85
2022/11/05 05:15:22;;;;;;;13.70;12.13;;;;;;;9.14;83.51;100550.03;1706295;82;21080;-85
2022/11/05 05:17:50;;;;;;;12.25;10.95;;;;;;;9.11;83.55;100543.37;1697994;82;21097;-85
2022/11/05 05:23:02;;;;;;;15.93;12.73;;;;;;;9.11;83.50;100537.23;1702837;83;21783;-86
2022/11/05 05:25:29;;;;;;;15.88;12.25;;;;;;;9.07;83.56;100534.95;1703042;84;21068;-85
2022/11/05 05:27:57;;;;;;;15.80;12.43;;;;;;;9.09;83.62;100534.99;1680809;83;21076;-85
2022/11/05 05:30:24;;;;;;;14.93;12.80;;;;;;;9.09;83.63;100551.63;1677431;84;21082;-85
2022/11/05 05:32:51;;;;;;;14.65;12.23;;;;;;;9.11;83.65;100550.36;1700207;83;21104;-84
2022/11/05 05:35:18;;;;;;;16.17;12.50;;;;;;;9.12;83.68;100549.50;1700477;83;22556;-84
2022/11/05 05:37:45;;;;;;;15.68;12.47;;;;;;;9.12;83.66;100550.41;1723492;83;21035;-85
2022/11/05 05:40:12;;;;;;;17.23;11.83;;;;;;;9.10;83.59;100553.82;1725568;83;21030;-85
2022/11/05 05:42:38;;;;;;;13.40;11.60;;;;;;;9.09;83.66;100554.25;1745734;82;21657;-86
2022/11/05 05:45:07;;;;;;;14.13;11.43;;;;;;;9.08;83.61;100559.02;1745552;82;21068;-84
2022/11/05 05:47:34;;;;;;;14.68;12.40;;;;;;;9.06;83.64;100559.41;1723473;82;22586;-84
2022/11/05 05:50:01;;;;;;;14.47;12.05;;;;;;;9.06;83.65;100561.16;1745807;80;21578;-84
2022/11/05 05:52:27;;;;;;;14.50;11.78;;;;;;;9.05;83.73;100558.96;1745422;82;21511;-85
2022/11/05 05:54:54;;;;;;;14.60;11.85;;;;;;;9.06;83.77;100567.28;1745840;82;21129;-84
2022/11/05 05:57:21;;;;;;;17.60;12.53;;;;;;;9.07;83.77;100569.08;1721764;82;21054;-85
2022/11/05 05:59:50;;;;;;;14.03;12.07;;;;;;;9.08;83.78;100570.84;1715177;83;22418;-85
2022/11/05 06:02:18;;;;;;;15.03;12.60;;;;;;;9.09;83.89;100564.76;1725975;82;21030;-86
2022/11/05 06:04:45;;;;;;;13.25;11.70;;;;;;;9.12;83.87;100561.31;1717167;83;21039;-86
2022/11/05 06:07:12;;;;;;;15.40;11.40;;;;;;;9.10;83.76;100572.20;1724052;83;22282;-86
2022/11/05 06:09:41;;;;;;;12.75;11.10;;;;;;;9.08;83.79;100576.09;1692812;83;21100;-86
2022/11/05 06:12:07;;;;;;;12.70;10.75;;;;;;;9.09;83.87;100588.39;1707709;83;21766;-85
2022/11/05 06:14:34;;;;;;;13.85;11.63;;;;;;;9.05;83.82;100587.84;1713279;83;21125;-85
2022/11/05 06:17:01;;;;;;;15.45;12.70;;;;;;;9.08;83.94;100592.28;1712934;82;21085;-85
2022/11/05 06:19:28;;;;;;;13.85;12.03;;;;;;;9.12;84.04;100590.20;1709615;83;21244;-85
2022/11/05 06:21:54;;;;;;;14.75;12.13;;;;;;;9.13;83.98;100586.74;1709412;83;21081;-84
2022/11/05 06:24:21;;;;;;;14.33;12.85;;;;;;;9.14;83.98;100593.75;1725276;83;21748;-85
2022/11/05 06:26:48;;;;;;;18.12;13.25;;;;;;;9.13;83.91;100595.50;1724688;83;21081;-85
2022/11/05 06:29:15;;;;;;;13.98;12.58;;;;;;;9.11;83.92;100601.56;1697748;83;21030;-85
2022/11/05 06:31:42;;;;;;;15.03;12.30;;;;;;;9.13;83.95;100609.06;1715252;83;22322;-84
2022/11/05 06:34:09;;;;;;;17.40;14.45;;;;;;;9.15;83.97;100617.44;1715403;82;21657;-84
2022/11/05 06:36:36;;;;;;;24.30;15.80;;;;;;;9.15;84.04;100617.88;1727129;82;22614;-84
2022/11/05 06:39:03;;;;;;;20.65;16.12;;;;;;;9.18;84.10;100627.56;1735592;82;21638;-84
2022/11/05 06:41:29;;;;;;;22.15;18.00;;;;;;;9.21;84.07;100618.03;1735550;82;21078;-84
2022/11/05 06:43:56;;;;;;;27.35;19.35;;;;;;;9.25;84.18;100618.62;1735402;82;21066;-86
2022/11/05 06:46:23;;;;;;;26.57;19.80;;;;;;;9.27;84.09;100609.44;1731357;82;21154;-84
2022/11/05 06:48:50;;;;;;;25.88;18.65;;;;;;;9.29;84.04;100610.37;1715245;83;21767;-82
2022/11/05 06:51:17;;;;;;;22.70;17.20;;;;;;;9.28;83.93;100610.80;1714951;83;21539;-85
2022/11/05 06:53:43;;;;;;;20.08;15.70;;;;;;;9.26;83.96;100612.93;1715181;83;21643;-84
2022/11/05 06:56:10;;;;;;;19.45;16.10;;;;;;;9.29;84.00;100613.00;1710373;82;21217;-83
2022/11/05 06:58:37;;;;;;;18.17;14.50;;;;;;;9.29;83.96;100612.59;1726953;82;21079;-85
2022/11/05 07:01:09;;;;;;;16.67;14.25;;;;;;;9.31;83.99;100612.64;1735370;82;22586;-83
2022/11/05 07:03:36;;;;;;;18.23;15.00;;;;;;;9.30;83.92;100616.11;1735231;82;21058;-83
2022/11/05 07:06:04;;;;;;;24.23;15.05;;;;;;;9.30;83.91;100620.92;1733149;82;21060;-83
2022/11/05 07:08:34;;;;;;;16.95;15.03;;;;;;;9.32;84.05;100627.54;1714989;82;21657;-82
2022/11/05 07:11:00;;;;;;;19.73;14.70;;;;;;;9.35;84.07;100622.38;1710979;82;21145;-83
2022/11/05 07:13:27;;;;;;;21.35;15.68;;;;;;;9.31;84.07;100612.64;1709669;83;21900;-82
2022/11/05 07:15:55;;;;;;;20.08;16.42;;;;;;;9.40;84.05;100618.12;1709735;83;21074;-84
2022/11/05 07:18:22;;;;;;;20.68;17.20;;;;;;;9.38;83.98;100619.82;1682127;82;21120;-83
2022/11/05 07:20:49;;;;;;;23.30;17.67;;;;;;;9.41;84.02;100623.86;1706721;83;21550;-83
2022/11/05 07:23:15;;;;;;;29.37;19.95;;;;;;;9.44;84.05;100633.55;1706710;83;21113;-83
2022/11/05 07:25:42;;;;;;;28.40;18.87;;;;;;;9.49;84.19;100639.83;1710637;82;21745;-82
2022/11/05 07:28:09;;;;;;;27.93;19.40;;;;;;;9.56;84.17;100647.47;1708392;82;21176;-81
2022/11/05 07:30:36;;;;;;;26.48;20.05;;;;;;;9.53;84.11;100643.00;1680630;84;21061;-83
2022/11/05 07:33:03;;;;;;;25.90;20.80;;;;;;;9.62;84.04;100662.96;1706095;84;21058;-83
2022/11/05 07:35:30;;;;;;;29.70;21.05;;;;;;;9.67;84.12;100670.56;1699268;84;21059;-83
2022/11/05 07:37:56;;;;;;;29.48;22.42;;;;;;;9.73;84.13;100667.20;1705251;84;22547;-82
2022/11/05 07:40:25;;;;;;;27.40;21.48;;;;;;;9.77;84.05;100665.12;1685894;82;21604;-84
2022/11/05 07:42:55;;;;;;;26.60;21.50;;;;;;;9.81;84.02;100668.72;1688908;84;21067;-84
2022/11/05 07:45:21;;;;;;;25.10;20.25;;;;;;;9.84;83.99;100672.33;1671102;83;21719;-85
2022/11/05 07:47:50;;;;;;;22.15;19.32;;;;;;;9.85;83.87;100672.81;1702010;83;21674;-86
2022/11/05 07:53:11;;;;;;;23.05;18.82;;;;;;;9.92;83.88;100669.89;1666442;85;21624;-85
2022/11/05 07:55:39;;;;;;;24.65;19.02;;;;;;;9.97;83.90;100658.20;1670767;84;21624;-85
2022/11/05 07:58:06;;;;;;;26.27;22.15;;;;;;;10.01;83.87;100655.67;1667434;84;21194;-85
2022/11/05 08:00:33;;;;;;;30.92;24.70;;;;;;;10.02;83.73;100653.92;1717108;82;22100;-87
2022/11/05 08:03:09;;;;;;;30.48;24.92;;;;;;;10.07;83.85;100660.20;1723109;82;21792;-87
2022/11/05 08:05:38;;;;;;;31.60;24.25;;;;;;;10.10;83.84;100655.03;1701726;83;21716;-88
2022/11/05 08:08:07;;;;;;;31.68;25.12;;;;;;;10.11;83.72;100668.20;1712642;82;21015;-87
2022/11/05 08:10:33;;;;;;;30.45;24.37;;;;;;;10.10;83.66;100673.01;1711184;82;21474;-87
2022/11/05 08:13:05;;;;;;;27.52;24.52;;;;;;;10.07;83.79;100658.89;1720321;83;21536;-87
2022/11/05 08:15:32;;;;;;;32.23;27.02;;;;;;;10.24;84.03;100681.23;1718159;82;22556;-87
2022/11/05 08:18:09;;;;;;;32.33;26.17;;;;;;;10.32;84.03;100681.45;1729634;82;21587;-87
2022/11/05 08:20:36;;;;;;;31.20;26.15;;;;;;;10.37;83.91;100689.48;1734800;82;21088;-87
2022/11/05 08:23:04;;;;;;;34.48;27.10;;;;;;;10.40;83.80;100703.61;1725118;82;21063;-86
2022/11/05 08:25:31;;;;;;;34.23;26.60;;;;;;;10.43;83.75;100704.98;1726325;82;21067;-87
2022/11/05 08:28:03;;;;;;;32.00;26.55;;;;;;;10.49;83.76;100695.03;1722179;82;21739;-87
2022/11/05 08:30:30;;;;;;;38.23;25.55;;;;;;;10.53;83.65;100689.02;1730444;82;21601;-87
2022/11/05 08:32:59;;;;;;;32.48;26.80;;;;;;;10.56;83.78;100682.48;1700158;83;21087;-87
2022/11/05 08:35:26;;;;;;;28.95;23.90;;;;;;;10.63;83.73;100686.17;1728574;82;21109;-87
2022/11/05 08:38:01;;;;;;;29.63;25.65;;;;;;;10.64;83.50;100694.11;1730405;82;21601;-87
2022/11/05 08:40:30;;;;;;;32.93;27.67;;;;;;;10.66;83.45;100707.28;1687923;84;21846;-87
2022/11/05 08:42:57;;;;;;;38.23;28.20;;;;;;;10.66;83.44;100711.23;1660793;86;21000;-87
2022/11/05 08:45:25;;;;;;;30.17;26.93;;;;;;;10.60;83.21;100704.08;1660897;85;21082;-87
2022/11/05 08:48:11;;;;;;;33.55;29.48;;;;;;;10.57;83.20;100701.83;1660640;86;21066;-86
2022/11/05 08:50:41;;;;;;;36.75;30.92;;;;;;;10.55;83.19;100711.40;1670226;85;21066;-89
2022/11/05 08:53:07;;;;;;;44.42;34.75;;;;;;;10.55;83.34;100711.40;1679121;84;23004;-87
2022/11/05 08:55:33;;;;;;;42.15;31.57;;;;;;;10.57;83.51;100707.09;1679668;84;21162;-87
2022/11/05 08:58:05;;;;;;;40.63;31.17;;;;;;;10.63;83.58;100709.42;1696498;83;21097;-87
2022/11/05 09:00:34;;;;;;;38.60;29.25;;;;;;;10.69;83.56;100719.22;1697386;83;21111;-87
2022/11/05 09:03:02;;;;;;;32.10;27.52;;;;;;;10.73;83.58;100725.44;1684632;84;21604;-87
2022/11/05 09:05:29;;;;;;;29.15;24.05;;;;;;;10.80;83.63;100719.48;1657480;84;22564;-87
2022/11/05 09:07:56;;;;;;;28.50;25.37;;;;;;;10.87;83.70;100718.77;1680913;84;22043;-87
2022/11/05 09:10:23;;;;;;;25.77;22.77;;;;;;;10.93;83.53;100722.86;1690949;84;21300;-88
2022/11/05 09:12:49;;;;;;;23.42;17.57;;;;;;;10.92;83.29;100730.71;1680931;84;21106;-88
2022/11/05 09:15:16;;;;;;;21.20;17.92;;;;;;;10.89;83.27;100727.59;1689476;83;21099;-87
2022/11/05 09:17:43;;;;;;;25.05;18.60;;;;;;;10.88;83.26;100726.68;1692080;83;21738;-88
2022/11/05 09:20:10;;;;;;;23.18;18.57;;;;;;;10.91;83.36;100728.95;1690678;84;21089;-88
2022/11/05 09:22:37;;;;;;;25.88;18.80;;;;;;;10.95;83.43;100730.36;1657749;84;21069;-87
2022/11/05 09:25:05;;;;;;;22.82;18.17;;;;;;;11.02;83.42;100736.67;1694568;83;21063;-87
2022/11/05 09:27:31;;;;;;;27.95;19.00;;;;;;;11.06;83.46;100734.12;1696632;84;21653;-87
2022/11/05 09:29:58;;;;;;;23.83;18.52;;;;;;;11.11;83.35;100739.92;1693723;83;21737;-87
2022/11/05 09:32:25;;;;;;;34.45;24.52;;;;;;;11.11;83.28;100750.02;1679420;84;21071;-87
2022/11/05 09:34:52;;;;;;;28.20;21.60;;;;;;;11.15;83.32;100754.53;1683328;84;21356;-87
2022/11/05 09:37:20;;;;;;;29.60;20.08;;;;;;;11.17;83.26;100751.94;1667379;84;21091;-87
2022/11/05 09:39:47;;;;;;;28.85;21.55;;;;;;;11.16;83.15;100758.05;1667985;84;21063;-88
2022/11/05 09:42:16;;;;;;;26.65;18.25;;;;;;;11.18;83.12;100759.85;1656772;84;21710;-87
2022/11/05 09:44:58;;;;;;;28.27;20.80;;;;;;;11.19;83.18;100770.87;1700131;83;21592;-87
2022/11/05 09:47:42;;;;;;;26.40;20.08;;;;;;;11.20;83.09;100776.58;1686697;84;21257;-86
2022/11/05 09:50:15;;;;;;;25.92;21.10;;;;;;;11.20;83.03;100775.70;1685662;84;21072;-86
2022/11/05 09:52:42;;;;;;;26.42;21.80;;;;;;;11.14;82.90;100780.41;1671717;84;21402;-86
2022/11/05 09:55:22;;;;;;;26.52;21.20;;;;;;;11.17;83.09;100787.51;1670129;85;21778;-86
2022/11/05 09:57:56;;;;;;;20.50;17.87;;;;;;;11.26;83.37;100785.05;1664507;85;21575;-84
2022/11/05 10:00:23;;;;;;;21.95;18.17;;;;;;;11.38;83.35;100785.34;1665129;85;21023;-84
2022/11/05 10:02:54;;;;;;;20.12;15.98;;;;;;;11.45;83.22;100792.53;1667865;85;21069;-84
2022/11/05 10:05:22;;;;;;;17.62;14.20;;;;;;;11.49;83.14;100794.81;1686286;84;21018;-85
2022/11/05 10:08:02;;;;;;;14.23;12.13;;;;;;;11.54;83.12;100789.63;1679689;85;22922;-85
2022/11/05 10:10:40;;;;;;;14.20;11.22;;;;;;;11.59;82.96;100787.98;1681748;83;20991;-85
2022/11/05 10:13:39;;;;;;;13.62;9.55;;;;;;;11.70;82.94;100794.81;1685118;84;20995;-88
2022/11/05 10:16:31;;;;;;;12.15;8.40;;;;;;;11.78;82.73;100803.33;1684646;83;21017;-89
2022/11/05 10:19:14;;;;;;;11.40;8.68;;;;;;;11.88;82.60;100799.16;1685357;83;21022;-88
2022/11/05 10:21:41;;;;;;;10.10;7.65;;;;;;;11.98;82.32;100806.42;1685414;83;22594;-87
2022/11/05 10:24:17;;;;;;;10.50;7.35;;;;;;;12.01;82.14;100802.94;1684191;85;20984;-88
2022/11/05 10:26:48;;;;;;;9.95;7.53;;;;;;;12.00;81.86;100803.37;1687131;84;21014;-87
2022/11/05 10:29:19;;;;;;;11.15;6.45;;;;;;;12.01;81.79;100812.17;1647807;85;21140;-88
2022/11/05 10:31:46;;;;;;;7.00;5.22;;;;;;;11.99;81.67;100815.21;1711361;82;21014;-87
2022/11/05 10:34:16;;;;;;;8.65;5.55;;;;;;;12.00;81.64;100819.20;1703926;83;22571;-88
2022/11/05 10:36:41;;;;;;;8.68;4.47;;;;;;;12.02;81.63;100813.97;1712369;82;21090;-88
2022/11/05 10:39:17;;;;;;;7.67;4.80;;;;;;;12.03;81.38;100814.41;1703653;83;21741;-88
2022/11/05 10:42:07;;;;;;;6.72;4.00;;;;;;;12.00;81.25;100826.23;1712228;83;21118;-88
2022/11/05 10:44:54;;;;;;;6.42;3.95;;;;;;;11.96;81.12;100824.41;1712261;83;21367;-88
2022/11/05 10:47:48;;;;;;;7.10;4.28;;;;;;;11.95;81.11;100835.36;1712186;82;21803;-87
2022/11/05 10:50:19;;;;;;;7.67;4.35;;;;;;;11.98;81.25;100847.31;1711859;82;21082;-88
2022/11/05 10:52:59;;;;;;;8.10;4.08;;;;;;;12.07;81.41;100857.17;1722078;82;20978;-87
2022/11/05 10:55:32;;;;;;;6.78;3.50;;;;;;;12.14;81.32;100859.05;1733415;82;20984;-88
2022/11/05 10:58:16;;;;;;;7.40;4.17;;;;;;;12.20;81.17;100867.52;1728173;81;21165;-87
2022/11/05 11:00:45;;;;;;;6.37;4.00;;;;;;;12.23;81.00;100868.47;1687994;84;21799;-87
2022/11/05 11:03:48;;;;;;;6.47;4.45;;;;;;;12.25;80.85;100871.15;1660525;84;21073;-87
2022/11/05 11:06:30;;;;;;;6.42;3.62;;;;;;;12.25;80.82;100869.39;1628276;86;21162;-87
2022/11/05 11:09:00;;;;;;;4.90;3.42;;;;;;;12.24;80.52;100870.70;1657196;84;21123;-87
2022/11/05 11:11:34;;;;;;;8.23;3.75;;;;;;;12.21;80.33;100874.16;1653618;84;21299;-87
2022/11/05 11:14:14;;;;;;;6.12;3.25;;;;;;;12.22;80.41;100886.51;1652235;86;22418;-87
2022/11/05 11:16:43;;;;;;;5.92;3.35;;;;;;;12.29;80.41;100905.09;1654531;83;21093;-87
2022/11/05 11:19:33;;;;;;;7.67;3.22;;;;;;;12.30;80.24;100896.33;1661668;85;21066;-87
2022/11/05 11:22:09;;;;;;;5.45;3.05;;;;;;;12.29;80.05;100892.78;1660656;85;21552;-87
2022/11/05 11:24:46;;;;;;;4.55;2.98;;;;;;;12.30;79.95;100893.70;1659702;86;21517;-87
2022/11/05 11:27:19;;;;;;;9.30;2.92;;;;;;;12.26;79.77;100899.34;1660048;86;22430;-87
2022/11/05 11:29:50;;;;;;;5.20;3.08;;;;;;;12.22;79.61;100901.46;1653045;85;21126;-88
2022/11/05 11:32:19;;;;;;;4.45;2.95;;;;;;;12.15;79.45;100908.34;1658964;85;21110;-87
2022/11/05 11:35:18;;;;;;;6.65;3.05;;;;;;;12.10;79.51;100902.06;1642621;86;21173;-89
2022/11/05 11:37:45;;;;;;;6.50;3.05;;;;;;;12.09;79.47;100907.30;1656754;85;21592;-87
2022/11/05 11:40:25;;;;;;;5.12;3.10;;;;;;;12.07;79.42;100909.94;1658360;86;21891;-87
2022/11/05 11:42:54;;;;;;;5.95;3.15;;;;;;;12.03;79.29;100907.66;1658321;85;21516;-87
2022/11/05 11:45:45;;;;;;;6.45;2.90;;;;;;;12.05;79.41;100902.42;1658404;85;21122;-87
2022/11/05 11:48:18;;;;;;;7.58;3.75;;;;;;;12.11;79.44;100906.94;1657710;86;21590;-87
2022/11/05 11:50:46;;;;;;;6.20;4.03;;;;;;;12.16;79.47;100910.14;1658783;85;21047;-87
2022/11/05 11:53:24;;;;;;;6.03;3.83;;;;;;;12.20;79.53;100914.61;1664147;85;23196;-88
2022/11/05 11:55:58;;;;;;;6.67;4.20;;;;;;;12.21;79.47;100915.50;1685913;85;21065;-87
2022/11/05 11:58:45;;;;;;;5.65;3.70;;;;;;;12.23;79.25;100913.78;1686723;83;21065;-87
2022/11/05 12:01:34;;;;;;;5.78;3.58;;;;;;;12.18;79.10;100918.06;1723517;83;21086;-87
2022/11/05 12:04:18;;;;;;;7.25;3.42;;;;;;;12.14;79.14;100920.17;1694808;84;21733;-87
2022/11/05 12:07:02;;;;;;;5.97;3.65;;;;;;;12.14;79.15;100929.41;1677116;84;22071;-87
2022/11/05 12:09:37;;;;;;;6.17;3.60;;;;;;;12.15;79.28;100929.89;1706964;81;21046;-87
2022/11/05 12:12:13;;;;;;;5.65;3.58;;;;;;;12.13;79.09;100934.25;1721740;83;21065;-87
2022/11/05 12:15:12;;;;;;;7.03;4.65;;;;;;;12.11;79.05;100934.20;1722114;83;21070;-87
2022/11/05 12:17:59;;;;;;;7.70;4.87;;;;;;;12.10;79.00;100944.28;1721874;83;21005;-87
2022/11/05 12:20:37;;;;;;;9.83;5.28;;;;;;;12.09;79.05;100949.52;1721925;83;23001;-87
2022/11/05 12:23:45;;;;;;;12.10;6.95;;;;;;;12.09;79.27;100954.80;1721538;83;21078;-87
2022/11/05 12:26:35;;;;;;;9.28;5.67;;;;;;;12.12;79.34;100961.48;1723570;83;21067;-88
2022/11/05 12:29:35;;;;;;;6.37;4.67;;;;;;;12.10;79.33;100970.67;1723209;82;21071;-87